Hauptseite
METAR-TAF:

METAR-TAF

Flughäfen :

Flughafen Caracas

Caracas, Venezuela

Breite: 10-36N, Länge: 066-59W, Höhe: 43 m

Beobachtung

Neuester Wetterbericht von vor 1 Stunde und 33 Minuten, um 20:00 UTC
Wind 4 kt aus West
Temperatur 30°C
Luftfeuchtigkeit 66%
Luftdruck 1011 hPa
Sichtweite 10 km oder mehr
Leicht bewölkt in der Höhe von 1600 ft

METAR: SVMI 142000Z 27004KT 9999 FEW016 30/23 Q1011

Zeit: 17:33 (21:33 UTC)

Prognose

Neuester Wetterbericht von vor 5 Stunden und 33 Minuten, um 16:00 UTC
Gültige Prognose vom 14 um 18 UTC bis 15 um 18 UTC
Wind 2 kt aus Nordost
Sichtweite 10 km oder mehr
Aufgelockert bewölkt in der Höhe von 1600 ft
Übergehend zu
vom 14 um 18 UTC bis 14 um 22 UTC
Wind 3 kt aus West/Südwest
Sichtweite 10 km oder mehr
Durchbrochene Bewölkung in der Höhe von 1600 ft

TAF: SVMI 141600Z 1418/1518 05002KT 9999 SCT016 TX32/18Z TN22/08Z BECMG 1418/1422 25003KT 9999 BKN016

Wetterbeobachtungen und Prognosen von mehr als 4000 Flughäfen (METAR und TAF Bericht).

Die verfügbaren Stationen werden durch gelbe und rote Markierungen auf der Karte dargestellt.

Führen Sie die Maus auf sie, um den Namen der Station zu sehen.

Darauf klicken, um die Beobachtung von Wetterbeobachtungen und Prognosen zu sehen.

Um die Karte zu ändern : klicken Sie auf den grünen Tasten mit einem schwarzen Kreuz Zum Vergrößern, auf den grünen Button mit einem Gedankenstrich zu verkleinern, oder auf die grünen Pfeile für benachbarte Karten.


METAR-TAF: